Pagina principale
METAR-TAF:

METAR-TAF

Aeroporti :

Aeroporto Internazionale Tan Son Nhat

Ho Chi Minh, Vietnam

latitudine: 10-49N, longitudine: 106-40E, altezza: 19 m

Osservazione

Il bollettino è stato emesso 34 minuti fa, alle 03:30 UTC
Vento 4 kt da direzioni variabili
Temperature 31°C
Umidità 71%
Pressione 1012 hPa
Visibilità: 8000 m
Nubi sparse ad un'altezza di 2000 ft

METAR: VVTS 210330Z VRB04KT 8000 SCT020 31/25 Q1012 NOSIG

Ora: 11:04 (04:04 UTC)

Previsione

Il bollettino è stato emesso 5 ore e 4 minuti fa, alle 23:00 UTC
Previsione valida dal 21 alle 00 UTC al 22 alle 06 UTC
Vento 10 kt da sud-est
Visibilità 10 km o più
Poco nuvoloso ad un'altezza di 1700 ft
Temporaneamente
dal 21 alle 07 UTC al 21 alle 11 UTC
Nubi sparse ad un'altezza di 1500 ft
Poco nuvoloso ad un'altezza di 1700 ft, Cumulonembo.
temporale

TAF: VVTS 202300Z 2100/2206 13010KT 9999 FEW017 TEMPO 2107/2111 TS SCT015 FEW017CB

Osservazioni e previsioni meteorologiche di più di 4000 aeroporti (messaggi METAR e TAF).

Le stazioni disponibili sono rappresentate dai dischi gialli e rossi sulla carta.

Puntare il mouse per vedere il nome della stazione.

Clicca sopra per visualizzare le osservazioni e previsioni meteorologiche.

Per cambiare la mappa : fare clic sui pulsanti verdi con una croce nera per ingrandire, il pulsante verde con un trattino per diminuire, o sulla freccia verde per le mappe adiacenti.


METAR-TAF: